createdAt,value
2022-12-29T15:55:39.256Z,12.80
2022-12-29T16:05:41.372Z,11.90
2022-12-29T16:15:47.172Z,11.50
2022-12-29T16:25:49.057Z,11.20
2022-12-29T16:35:50.676Z,11.10
2022-12-29T16:45:52.262Z,11.00
2022-12-29T16:55:55.633Z,11.00
2022-12-29T17:05:57.701Z,10.80
2022-12-29T17:15:59.613Z,10.80
2022-12-29T17:26:02.222Z,10.60
2022-12-29T17:36:04.195Z,10.70
2022-12-29T17:46:07.894Z,10.60
2022-12-29T17:56:10.136Z,10.50
2022-12-29T18:06:12.710Z,10.50
2022-12-29T18:16:14.959Z,10.50
2022-12-29T18:26:28.077Z,10.50
2022-12-29T18:36:30.071Z,10.50
2022-12-29T18:46:31.766Z,10.60
2022-12-29T18:56:33.438Z,10.60
2022-12-29T19:06:35.060Z,10.60
2022-12-29T19:16:36.718Z,10.60
2022-12-29T19:26:40.338Z,10.70
2022-12-29T19:36:42.800Z,10.80
2022-12-29T19:46:44.543Z,10.70
2022-12-29T19:56:46.489Z,10.80
2022-12-29T20:06:48.282Z,10.80
2022-12-29T20:17:10.071Z,10.70
2022-12-29T20:27:13.561Z,10.70
2022-12-29T20:37:15.724Z,10.70
2022-12-29T20:47:17.336Z,10.60
2022-12-29T20:57:18.964Z,10.60
2022-12-29T21:07:20.713Z,10.60
2022-12-29T21:17:22.328Z,10.60
2022-12-29T21:27:23.962Z,10.60
2022-12-29T21:37:25.580Z,10.50
2022-12-29T21:47:47.166Z,10.60
2022-12-29T21:58:07.208Z,10.60
2022-12-29T22:08:27.711Z,10.60
2022-12-29T22:18:29.543Z,10.60
2022-12-29T22:28:31.163Z,10.60
2022-12-29T22:38:32.768Z,10.50
2022-12-29T22:48:35.773Z,10.60
2022-12-29T22:58:41.587Z,10.50
2022-12-29T23:08:44.106Z,10.50
2022-12-29T23:18:47.071Z,10.60
2022-12-29T23:28:53.416Z,10.50
2022-12-29T23:38:57.961Z,10.50
2022-12-29T23:49:00.077Z,10.50
2022-12-29T23:59:05.059Z,10.50
